sensor_id;sensor_type;location;lat;lon;timestamp;pressure;altitude;pressure_sealevel;temperature;humidity
42621;BME280;28252;53.336;-6.298;2022-07-22T00:00:13;101809.41;;;25.32;51.52
42621;BME280;28252;53.336;-6.298;2022-07-22T00:00:44;101812.97;;;25.32;51.49
42621;BME280;28252;53.336;-6.298;2022-07-22T00:01:15;101813.81;;;25.33;51.60
42621;BME280;28252;53.336;-6.298;2022-07-22T00:01:46;101811.94;;;25.33;51.31
42621;BME280;28252;53.336;-6.298;2022-07-22T00:02:17;101816.53;;;25.33;51.33
42621;BME280;28252;53.336;-6.298;2022-07-22T00:02:48;101812.13;;;25.32;51.33
42621;BME280;28252;53.336;-6.298;2022-07-22T00:03:19;101809.41;;;25.32;51.49
42621;BME280;28252;53.336;-6.298;2022-07-22T00:03:50;101805.63;;;25.33;51.29
42621;BME280;28252;53.336;-6.298;2022-07-22T00:04:21;101811.09;;;25.33;51.70
42621;BME280;28252;53.336;-6.298;2022-07-22T00:04:52;101807.53;;;25.32;51.59
42621;BME280;28252;53.336;-6.298;2022-07-22T00:05:22;101811.09;;;25.33;51.25
42621;BME280;28252;53.336;-6.298;2022-07-22T00:05:53;101808.38;;;25.33;51.28
42621;BME280;28252;53.336;-6.298;2022-07-22T00:06:24;101800.19;;;25.33;51.25
42621;BME280;28252;53.336;-6.298;2022-07-22T00:06:55;101808.19;;;25.34;51.26
42621;BME280;28252;53.336;-6.298;2022-07-22T00:07:26;101803.97;;;25.32;51.42
42621;BME280;28252;53.336;-6.298;2022-07-22T00:07:57;101800.19;;;25.33;51.35
42621;BME280;28252;53.336;-6.298;2022-07-22T00:08:28;101804.81;;;25.32;51.59
42621;BME280;28252;53.336;-6.298;2022-07-22T00:08:59;101798.50;;;25.32;51.30
42621;BME280;28252;53.336;-6.298;2022-07-22T00:09:30;101806.47;;;25.33;51.64
42621;BME280;28252;53.336;-6.298;2022-07-22T00:10:02;101801.91;;;25.34;51.49
42621;BME280;28252;53.336;-6.298;2022-07-22T00:10:33;101792.00;;;25.33;51.41
42621;BME280;28252;53.336;-6.298;2022-07-22T00:11:04;101800.19;;;25.33;51.41
42621;BME280;28252;53.336;-6.298;2022-07-22T00:11:35;101800.19;;;25.33;51.65
42621;BME280;28252;53.336;-6.298;2022-07-22T00:12:06;101800.19;;;25.33;51.43
42621;BME280;28252;53.336;-6.298;2022-07-22T00:12:37;101794.72;;;25.33;51.54
42621;BME280;28252;53.336;-6.298;2022-07-22T00:13:08;101798.50;;;25.32;51.52
42621;BME280;28252;53.336;-6.298;2022-07-22T00:13:39;101796.44;;;25.34;51.36
42621;BME280;28252;53.336;-6.298;2022-07-22T00:14:10;101801.03;;;25.33;51.58
42621;BME280;28252;53.336;-6.298;2022-07-22T00:14:42;101797.47;;;25.33;51.51
42621;BME280;28252;53.336;-6.298;2022-07-22T00:15:13;101794.72;;;25.33;51.75
42621;BME280;28252;53.336;-6.298;2022-07-22T00:15:44;101792.00;;;25.33;51.60
42621;BME280;28252;53.336;-6.298;2022-07-22T00:16:15;101796.44;;;25.34;51.55
42621;BME280;28252;53.336;-6.298;2022-07-22T00:16:46;101798.13;;;25.35;51.78
42621;BME280;28252;53.336;-6.298;2022-07-22T00:17:17;101799.34;;;25.32;51.56
42621;BME280;28252;53.336;-6.298;2022-07-22T00:17:48;101794.72;;;25.33;51.78
42621;BME280;28252;53.336;-6.298;2022-07-22T00:18:19;101797.47;;;25.33;51.86
42621;BME280;28252;53.336;-6.298;2022-07-22T00:18:50;101798.31;;;25.33;51.77
42621;BME280;28252;53.336;-6.298;2022-07-22T00:19:21;101798.31;;;25.33;51.62
42621;BME280;28252;53.336;-6.298;2022-07-22T00:19:52;101792.66;;;25.35;51.64
42621;BME280;28252;53.336;-6.298;2022-07-22T00:20:23;101796.44;;;25.34;51.86
42621;BME280;28252;53.336;-6.298;2022-07-22T00:20:54;101801.91;;;25.34;51.62
42621;BME280;28252;53.336;-6.298;2022-07-22T00:21:25;101801.91;;;25.34;51.78
42621;BME280;28252;53.336;-6.298;2022-07-22T00:21:56;101796.44;;;25.34;51.56
42621;BME280;28252;53.336;-6.298;2022-07-22T00:22:27;101794.72;;;25.33;51.87
42621;BME280;28252;53.336;-6.298;2022-07-22T00:22:58;101785.53;;;25.34;51.82
42621;BME280;28252;53.336;-6.298;2022-07-22T00:23:29;101793.72;;;25.34;51.51
42621;BME280;28252;53.336;-6.298;2022-07-22T00:24:00;101794.72;;;25.33;51.79
42621;BME280;28252;53.336;-6.298;2022-07-22T00:24:31;101791.00;;;25.34;51.77
42621;BME280;28252;53.336;-6.298;2022-07-22T00:25:02;101791.00;;;25.34;51.66
42621;BME280;28252;53.336;-6.298;2022-07-22T00:25:33;101797.28;;;25.34;51.81
42621;BME280;28252;53.336;-6.298;2022-07-22T00:26:04;101793.72;;;25.34;51.95
42621;BME280;28252;53.336;-6.298;2022-07-22T00:26:35;101787.22;;;25.35;51.48
42621;BME280;28252;53.336;-6.298;2022-07-22T00:27:06;101791.84;;;25.34;51.50
42621;BME280;28252;53.336;-6.298;2022-07-22T00:27:37;101791.84;;;25.34;51.50
42621;BME280;28252;53.336;-6.298;2022-07-22T00:28:07;101792.66;;;25.35;51.49
42621;BME280;28252;53.336;-6.298;2022-07-22T00:28:38;101793.72;;;25.34;51.80
42621;BME280;28252;53.336;-6.298;2022-07-22T00:29:09;101789.28;;;25.33;51.55
42621;BME280;28252;53.336;-6.298;2022-07-22T00:29:40;101796.44;;;25.34;51.81
42621;BME280;28252;53.336;-6.298;2022-07-22T00:30:12;101788.25;;;25.34;51.92
42621;BME280;28252;53.336;-6.298;2022-07-22T00:30:43;101792.66;;;25.35;51.68
42621;BME280;28252;53.336;-6.298;2022-07-22T00:31:13;101791.84;;;25.34;51.89
42621;BME280;28252;53.336;-6.298;2022-07-22T00:31:44;101796.44;;;25.34;51.62
42621;BME280;28252;53.336;-6.298;2022-07-22T00:32:15;101796.44;;;25.34;51.33
42621;BME280;28252;53.336;-6.298;2022-07-22T00:32:46;101787.22;;;25.35;51.69
42621;BME280;28252;53.336;-6.298;2022-07-22T00:33:17;101800.84;;;25.35;51.81
42621;BME280;28252;53.336;-6.298;2022-07-22T00:33:48;101793.72;;;25.34;51.73
42621;BME280;28252;53.336;-6.298;2022-07-22T00:34:19;101796.44;;;25.34;51.69
42621;BME280;28252;53.336;-6.298;2022-07-22T00:34:50;101792.66;;;25.35;51.67
42621;BME280;28252;53.336;-6.298;2022-07-22T00:35:21;101800.84;;;25.35;51.79
42621;BME280;28252;53.336;-6.298;2022-07-22T00:35:52;101795.41;;;25.35;51.93
42621;BME280;28252;53.336;-6.298;2022-07-22T00:36:23;101795.41;;;25.35;51.64
42621;BME280;28252;53.336;-6.298;2022-07-22T00:36:54;101796.44;;;25.34;51.54
42621;BME280;28252;53.336;-6.298;2022-07-22T00:37:24;101801.03;;;25.33;51.98
42621;BME280;28252;53.336;-6.298;2022-07-22T00:37:55;101798.13;;;25.35;51.67
42621;BME280;28252;53.336;-6.298;2022-07-22T00:38:26;101799.16;;;25.34;51.87
42621;BME280;28252;53.336;-6.298;2022-07-22T00:38:57;101793.53;;;25.35;51.72
42621;BME280;28252;53.336;-6.298;2022-07-22T00:39:29;101803.56;;;25.35;51.68
42621;BME280;28252;53.336;-6.298;2022-07-22T00:40:00;101801.91;;;25.34;51.64
42621;BME280;28252;53.336;-6.298;2022-07-22T00:40:30;101803.56;;;25.35;51.73
42621;BME280;28252;53.336;-6.298;2022-07-22T00:41:02;101807.34;;;25.34;51.64
42621;BME280;28252;53.336;-6.298;2022-07-22T00:41:32;101802.56;;;25.36;51.96
42621;BME280;28252;53.336;-6.298;2022-07-22T00:42:03;101807.34;;;25.34;51.81
42621;BME280;28252;53.336;-6.298;2022-07-22T00:42:34;101802.75;;;25.34;51.95
42621;BME280;28252;53.336;-6.298;2022-07-22T00:43:05;101807.19;;;25.35;51.46
42621;BME280;28252;53.336;-6.298;2022-07-22T00:43:57;101798.13;;;25.35;51.99
42621;BME280;28252;53.336;-6.298;2022-07-22T00:44:29;101809.22;;;25.33;52.08
42621;BME280;28252;53.336;-6.298;2022-07-22T00:45:00;101800.84;;;25.35;52.03
42621;BME280;28252;53.336;-6.298;2022-07-22T00:45:31;101801.91;;;25.34;52.04
42621;BME280;28252;53.336;-6.298;2022-07-22T00:46:02;101809.91;;;25.35;52.05
42621;BME280;28252;53.336;-6.298;2022-07-22T00:46:33;101807.19;;;25.35;52.14
42621;BME280;28252;53.336;-6.298;2022-07-22T00:47:04;101804.44;;;25.35;51.89
42621;BME280;28252;53.336;-6.298;2022-07-22T00:47:35;101804.44;;;25.35;51.88
42621;BME280;28252;53.336;-6.298;2022-07-22T00:48:06;101803.56;;;25.35;51.96
42621;BME280;28252;53.336;-6.298;2022-07-22T00:48:37;101810.09;;;25.34;52.02
42621;BME280;28252;53.336;-6.298;2022-07-22T00:49:08;101801.72;;;25.35;51.83
42621;BME280;28252;53.336;-6.298;2022-07-22T00:49:39;101798.13;;;25.35;52.20
42621;BME280;28252;53.336;-6.298;2022-07-22T00:50:10;101801.72;;;25.35;52.20
42621;BME280;28252;53.336;-6.298;2022-07-22T00:50:41;101804.63;;;25.34;52.03
42621;BME280;28252;53.336;-6.298;2022-07-22T00:51:12;101803.56;;;25.35;52.16
42621;BME280;28252;53.336;-6.298;2022-07-22T00:51:43;101798.13;;;25.35;51.97
42621;BME280;28252;53.336;-6.298;2022-07-22T00:52:16;101799.00;;;25.35;51.95
42621;BME280;28252;53.336;-6.298;2022-07-22T00:52:48;101800.00;;;25.34;52.01
42621;BME280;28252;53.336;-6.298;2022-07-22T00:53:19;101799.84;;;25.36;52.27
42621;BME280;28252;53.336;-6.298;2022-07-22T00:53:50;101799.84;;;25.36;51.96
42621;BME280;28252;53.336;-6.298;2022-07-22T00:54:21;101798.13;;;25.35;51.86
42621;BME280;28252;53.336;-6.298;2022-07-22T00:54:53;101799.00;;;25.35;52.24
42621;BME280;28252;53.336;-6.298;2022-07-22T00:55:25;101798.13;;;25.35;52.03
42621;BME280;28252;53.336;-6.298;2022-07-22T00:55:56;101798.13;;;25.35;52.05
42621;BME280;28252;53.336;-6.298;2022-07-22T00:56:27;101792.66;;;25.35;52.18
42621;BME280;28252;53.336;-6.298;2022-07-22T00:56:58;101792.66;;;25.35;52.07
42621;BME280;28252;53.336;-6.298;2022-07-22T00:57:29;101791.00;;;25.34;52.12
42621;BME280;28252;53.336;-6.298;2022-07-22T00:58:01;101786.38;;;25.34;52.29
42621;BME280;28252;53.336;-6.298;2022-07-22T00:58:32;101791.66;;;25.36;52.33
42621;BME280;28252;53.336;-6.298;2022-07-22T00:59:03;101787.22;;;25.35;52.10
42621;BME280;28252;53.336;-6.298;2022-07-22T00:59:35;101792.50;;;25.37;52.41
42621;BME280;28252;53.336;-6.298;2022-07-22T01:00:07;101789.78;;;25.37;52.18
42621;BME280;28252;53.336;-6.298;2022-07-22T01:00:39;101781.75;;;25.35;52.39
42621;BME280;28252;53.336;-6.298;2022-07-22T01:01:10;101785.38;;;25.35;52.14
42621;BME280;28252;53.336;-6.298;2022-07-22T01:01:41;101783.47;;;25.36;52.16
42621;BME280;28252;53.336;-6.298;2022-07-22T01:02:11;101788.94;;;25.36;52.27
42621;BME280;28252;53.336;-6.298;2022-07-22T01:02:42;101785.38;;;25.35;52.51
42621;BME280;28252;53.336;-6.298;2022-07-22T01:03:13;101781.75;;;25.35;52.17
42621;BME280;28252;53.336;-6.298;2022-07-22T01:03:44;101779.91;;;25.35;52.23
42621;BME280;28252;53.336;-6.298;2022-07-22T01:04:15;101782.63;;;25.35;52.49
42621;BME280;28252;53.336;-6.298;2022-07-22T01:04:47;101784.31;;;25.37;52.45
42621;BME280;28252;53.336;-6.298;2022-07-22T01:05:18;101782.63;;;25.35;52.24
42621;BME280;28252;53.336;-6.298;2022-07-22T01:05:49;101782.47;;;25.37;52.44
42621;BME280;28252;53.336;-6.298;2022-07-22T01:06:20;101783.47;;;25.36;52.34
42621;BME280;28252;53.336;-6.298;2022-07-22T01:06:51;101782.63;;;25.35;52.17
42621;BME280;28252;53.336;-6.298;2022-07-22T01:07:22;101790.81;;;25.35;52.62
42621;BME280;28252;53.336;-6.298;2022-07-22T01:07:53;101778.03;;;25.36;52.63
42621;BME280;28252;53.336;-6.298;2022-07-22T01:08:24;101779.91;;;25.35;52.25
42621;BME280;28252;53.336;-6.298;2022-07-22T01:08:55;101779.91;;;25.35;52.53
42621;BME280;28252;53.336;-6.298;2022-07-22T01:09:27;101783.47;;;25.36;52.09
42621;BME280;28252;53.336;-6.298;2022-07-22T01:09:58;101782.63;;;25.35;52.28
42621;BME280;28252;53.336;-6.298;2022-07-22T01:10:28;101783.47;;;25.36;52.48
42621;BME280;28252;53.336;-6.298;2022-07-22T01:11:09;101777.19;;;25.35;52.19
42621;BME280;28252;53.336;-6.298;2022-07-22T01:11:40;101775.28;;;25.36;52.61
42621;BME280;28252;53.336;-6.298;2022-07-22T01:12:12;101780.75;;;25.36;52.19
42621;BME280;28252;53.336;-6.298;2022-07-22T01:12:43;101778.03;;;25.36;52.25
42621;BME280;28252;53.336;-6.298;2022-07-22T01:13:14;101779.72;;;25.37;52.34
42621;BME280;28252;53.336;-6.298;2022-07-22T01:13:45;101780.56;;;25.38;52.37
42621;BME280;28252;53.336;-6.298;2022-07-22T01:14:17;101778.03;;;25.36;52.15
42621;BME280;28252;53.336;-6.298;2022-07-22T01:14:48;101775.47;;;25.34;52.41
42621;BME280;28252;53.336;-6.298;2022-07-22T01:15:19;101780.75;;;25.36;52.40
42621;BME280;28252;53.336;-6.298;2022-07-22T01:15:50;101775.28;;;25.36;52.19
42621;BME280;28252;53.336;-6.298;2022-07-22T01:16:21;101778.03;;;25.36;52.43
42621;BME280;28252;53.336;-6.298;2022-07-22T01:16:52;101772.56;;;25.36;52.14
42621;BME280;28252;53.336;-6.298;2022-07-22T01:17:23;101772.56;;;25.36;52.43
42621;BME280;28252;53.336;-6.298;2022-07-22T01:17:54;101767.13;;;25.36;52.27
42621;BME280;28252;53.336;-6.298;2022-07-22T01:18:25;101770.84;;;25.35;52.45
42621;BME280;28252;53.336;-6.298;2022-07-22T01:18:56;101772.56;;;25.36;52.01
42621;BME280;28252;53.336;-6.298;2022-07-22T01:19:27;101769.84;;;25.36;52.19
42621;BME280;28252;53.336;-6.298;2022-07-22T01:20:01;101771.72;;;25.35;52.49
42621;BME280;28252;53.336;-6.298;2022-07-22T01:20:34;101772.56;;;25.36;52.28
42621;BME280;28252;53.336;-6.298;2022-07-22T01:21:05;101772.56;;;25.36;52.33
42621;BME280;28252;53.336;-6.298;2022-07-22T01:21:36;101772.56;;;25.36;52.22
42621;BME280;28252;53.336;-6.298;2022-07-22T01:22:07;101767.13;;;25.36;52.07
42621;BME280;28252;53.336;-6.298;2022-07-22T01:22:39;101765.22;;;25.37;52.11
42621;BME280;28252;53.336;-6.298;2022-07-22T01:23:10;101756.19;;;25.36;52.07
42621;BME280;28252;53.336;-6.298;2022-07-22T01:23:41;101766.28;;;25.35;52.46
42621;BME280;28252;53.336;-6.298;2022-07-22T01:24:12;101768.13;;;25.35;51.89
42621;BME280;28252;53.336;-6.298;2022-07-22T01:24:43;101769.84;;;25.36;52.12
42621;BME280;28252;53.336;-6.298;2022-07-22T01:25:14;101767.94;;;25.37;52.18
42621;BME280;28252;53.336;-6.298;2022-07-22T01:25:45;101767.94;;;25.37;52.38
42621;BME280;28252;53.336;-6.298;2022-07-22T01:26:16;101762.50;;;25.37;51.95
42621;BME280;28252;53.336;-6.298;2022-07-22T01:26:47;101761.66;;;25.36;51.89
42621;BME280;28252;53.336;-6.298;2022-07-22T01:27:18;101775.97;;;25.38;52.00
42621;BME280;28252;53.336;-6.298;2022-07-22T01:27:50;101767.13;;;25.36;51.89
42621;BME280;28252;53.336;-6.298;2022-07-22T01:28:21;101767.13;;;25.36;52.17
42621;BME280;28252;53.336;-6.298;2022-07-22T01:28:52;101767.94;;;25.37;52.21
42621;BME280;28252;53.336;-6.298;2022-07-22T01:29:23;101768.81;;;25.37;51.95
42621;BME280;28252;53.336;-6.298;2022-07-22T01:29:53;101767.13;;;25.36;52.15
42621;BME280;28252;53.336;-6.298;2022-07-22T01:30:24;101767.94;;;25.37;51.87
42621;BME280;28252;53.336;-6.298;2022-07-22T01:30:55;101770.69;;;25.37;52.13
42621;BME280;28252;53.336;-6.298;2022-07-22T01:31:26;101770.84;;;25.35;52.26
42621;BME280;28252;53.336;-6.298;2022-07-22T01:31:58;101763.53;;;25.35;51.86
42621;BME280;28252;53.336;-6.298;2022-07-22T01:32:30;101775.28;;;25.36;51.96
42621;BME280;28252;53.336;-6.298;2022-07-22T01:33:01;101768.81;;;25.37;51.84
42621;BME280;28252;53.336;-6.298;2022-07-22T01:33:32;101766.09;;;25.37;51.80
42621;BME280;28252;53.336;-6.298;2022-07-22T01:34:03;101763.38;;;25.37;51.92
42621;BME280;28252;53.336;-6.298;2022-07-22T01:34:34;101762.50;;;25.37;51.79
42621;BME280;28252;53.336;-6.298;2022-07-22T01:35:05;101768.81;;;25.37;51.95
42621;BME280;28252;53.336;-6.298;2022-07-22T01:35:36;101767.94;;;25.37;51.76
42621;BME280;28252;53.336;-6.298;2022-07-22T01:36:07;101761.66;;;25.36;51.77
42621;BME280;28252;53.336;-6.298;2022-07-22T01:36:38;101767.13;;;25.36;51.84
42621;BME280;28252;53.336;-6.298;2022-07-22T01:37:10;101763.38;;;25.37;52.02
42621;BME280;28252;53.336;-6.298;2022-07-22T01:37:41;101766.09;;;25.37;51.91
42621;BME280;28252;53.336;-6.298;2022-07-22T01:38:12;101763.38;;;25.37;51.86
42621;BME280;28252;53.336;-6.298;2022-07-22T01:38:43;101761.66;;;25.36;51.71
42621;BME280;28252;53.336;-6.298;2022-07-22T01:39:14;101760.66;;;25.37;51.63
42621;BME280;28252;53.336;-6.298;2022-07-22T01:39:46;101758.94;;;25.36;51.92
42621;BME280;28252;53.336;-6.298;2022-07-22T01:40:17;101764.22;;;25.38;51.89
42621;BME280;28252;53.336;-6.298;2022-07-22T01:40:47;101763.38;;;25.37;51.68
42621;BME280;28252;53.336;-6.298;2022-07-22T01:41:18;101761.66;;;25.36;51.93
42621;BME280;28252;53.336;-6.298;2022-07-22T01:41:49;101764.22;;;25.38;51.70
42621;BME280;28252;53.336;-6.298;2022-07-22T01:42:20;101769.66;;;25.38;51.70
42621;BME280;28252;53.336;-6.298;2022-07-22T01:42:51;101763.38;;;25.37;51.76
42621;BME280;28252;53.336;-6.298;2022-07-22T01:43:22;101766.09;;;25.37;51.91
42621;BME280;28252;53.336;-6.298;2022-07-22T01:43:53;101768.81;;;25.37;51.70
42621;BME280;28252;53.336;-6.298;2022-07-22T01:44:24;101767.13;;;25.36;51.62
42621;BME280;28252;53.336;-6.298;2022-07-22T01:44:55;101768.81;;;25.37;51.72
42621;BME280;28252;53.336;-6.298;2022-07-22T01:45:26;101761.66;;;25.36;51.95
42621;BME280;28252;53.336;-6.298;2022-07-22T01:45:57;101761.66;;;25.36;51.62
42621;BME280;28252;53.336;-6.298;2022-07-22T01:46:28;101761.66;;;25.36;51.84
42621;BME280;28252;53.336;-6.298;2022-07-22T01:46:59;101768.81;;;25.37;51.52
42621;BME280;28252;53.336;-6.298;2022-07-22T01:47:30;101761.66;;;25.36;51.88
42621;BME280;28252;53.336;-6.298;2022-07-22T01:48:01;101761.66;;;25.36;51.93
42621;BME280;28252;53.336;-6.298;2022-07-22T01:48:32;101756.19;;;25.36;51.69
42621;BME280;28252;53.336;-6.298;2022-07-22T01:49:03;101762.31;;;25.38;51.87
42621;BME280;28252;53.336;-6.298;2022-07-22T01:49:34;101758.94;;;25.36;51.88
42621;BME280;28252;53.336;-6.298;2022-07-22T01:50:05;101757.91;;;25.37;51.78
42621;BME280;28252;53.336;-6.298;2022-07-22T01:50:38;101753.47;;;25.36;51.84
42621;BME280;28252;53.336;-6.298;2022-07-22T01:51:09;101761.66;;;25.36;51.87
42621;BME280;28252;53.336;-6.298;2022-07-22T01:51:40;101750.75;;;25.36;51.71
42621;BME280;28252;53.336;-6.298;2022-07-22T01:52:11;101763.38;;;25.37;51.46
42621;BME280;28252;53.336;-6.298;2022-07-22T01:52:42;101758.94;;;25.36;51.49
42621;BME280;28252;53.336;-6.298;2022-07-22T01:53:13;101756.19;;;25.36;51.46
42621;BME280;28252;53.336;-6.298;2022-07-22T01:53:44;101757.03;;;25.37;51.48
42621;BME280;28252;53.336;-6.298;2022-07-22T01:54:15;101756.19;;;25.36;51.42
42621;BME280;28252;53.336;-6.298;2022-07-22T01:54:46;101760.66;;;25.37;51.56
42621;BME280;28252;53.336;-6.298;2022-07-22T01:55:17;101757.91;;;25.37;51.59
42621;BME280;28252;53.336;-6.298;2022-07-22T01:55:48;101750.75;;;25.36;51.77
42621;BME280;28252;53.336;-6.298;2022-07-22T01:56:19;101759.94;;;25.35;51.46
42621;BME280;28252;53.336;-6.298;2022-07-22T01:56:50;101757.03;;;25.37;51.46
42621;BME280;28252;53.336;-6.298;2022-07-22T01:57:21;101761.66;;;25.36;51.67
42621;BME280;28252;53.336;-6.298;2022-07-22T01:57:52;101755.38;;;25.35;51.65
42621;BME280;28252;53.336;-6.298;2022-07-22T01:58:23;101760.66;;;25.37;51.68
42621;BME280;28252;53.336;-6.298;2022-07-22T01:58:54;101753.47;;;25.36;51.39
42621;BME280;28252;53.336;-6.298;2022-07-22T01:59:25;101749.91;;;25.35;51.32
42621;BME280;28252;53.336;-6.298;2022-07-22T01:59:56;101751.59;;;25.37;51.34
42621;BME280;28252;53.336;-6.298;2022-07-22T02:00:27;101757.03;;;25.37;51.73
42621;BME280;28252;53.336;-6.298;2022-07-22T02:00:58;101748.03;;;25.36;51.42
42621;BME280;28252;53.336;-6.298;2022-07-22T02:01:29;101751.59;;;25.37;51.39
42621;BME280;28252;53.336;-6.298;2022-07-22T02:02:00;101748.03;;;25.36;51.63
42621;BME280;28252;53.336;-6.298;2022-07-22T02:02:31;101748.03;;;25.36;51.39
42621;BME280;28252;53.336;-6.298;2022-07-22T02:03:02;101739.84;;;25.36;51.38
42621;BME280;28252;53.336;-6.298;2022-07-22T02:03:33;101751.59;;;25.37;51.62
42621;BME280;28252;53.336;-6.298;2022-07-22T02:04:04;101748.69;;;25.38;51.38
42621;BME280;28252;53.336;-6.298;2022-07-22T02:04:35;101739.84;;;25.36;51.54
42621;BME280;28252;53.336;-6.298;2022-07-22T02:05:06;101738.13;;;25.35;51.49
42621;BME280;28252;53.336;-6.298;2022-07-22T02:05:37;101748.03;;;25.36;51.25
42621;BME280;28252;53.336;-6.298;2022-07-22T02:06:08;101742.56;;;25.36;51.18
42621;BME280;28252;53.336;-6.298;2022-07-22T02:06:39;101747.19;;;25.35;51.23
42621;BME280;28252;53.336;-6.298;2022-07-22T02:07:10;101739.84;;;25.36;51.56
42621;BME280;28252;53.336;-6.298;2022-07-22T02:07:41;101745.28;;;25.36;51.41
42621;BME280;28252;53.336;-6.298;2022-07-22T02:08:12;101749.03;;;25.35;51.40
42621;BME280;28252;53.336;-6.298;2022-07-22T02:08:44;101740.69;;;25.37;51.57
42621;BME280;28252;53.336;-6.298;2022-07-22T02:09:15;101734.38;;;25.36;51.35
42621;BME280;28252;53.336;-6.298;2022-07-22T02:09:46;101739.00;;;25.35;51.32
42621;BME280;28252;53.336;-6.298;2022-07-22T02:10:16;101734.38;;;25.36;51.32
42621;BME280;28252;53.336;-6.298;2022-07-22T02:10:47;101731.66;;;25.36;51.26
42621;BME280;28252;53.336;-6.298;2022-07-22T02:11:18;101739.84;;;25.36;51.46
42621;BME280;28252;53.336;-6.298;2022-07-22T02:11:49;101731.66;;;25.36;51.19
42621;BME280;28252;53.336;-6.298;2022-07-22T02:12:20;101728.09;;;25.35;51.44
42621;BME280;28252;53.336;-6.298;2022-07-22T02:12:51;101728.94;;;25.36;51.17
42621;BME280;28252;53.336;-6.298;2022-07-22T02:13:22;101729.94;;;25.35;51.54
42621;BME280;28252;53.336;-6.298;2022-07-22T02:13:53;101731.66;;;25.36;51.39
42621;BME280;28252;53.336;-6.298;2022-07-22T02:14:24;101729.94;;;25.35;51.49
42621;BME280;28252;53.336;-6.298;2022-07-22T02:14:54;101732.69;;;25.35;51.21
42621;BME280;28252;53.336;-6.298;2022-07-22T02:15:26;101734.38;;;25.36;51.17
42621;BME280;28252;53.336;-6.298;2022-07-22T02:15:57;101732.69;;;25.35;51.15
42621;BME280;28252;53.336;-6.298;2022-07-22T02:16:28;101740.84;;;25.35;51.52
42621;BME280;28252;53.336;-6.298;2022-07-22T02:16:59;101742.56;;;25.36;51.49
42621;BME280;28252;53.336;-6.298;2022-07-22T02:17:30;101739.84;;;25.36;51.27
42621;BME280;28252;53.336;-6.298;2022-07-22T02:18:09;101739.84;;;25.36;51.15
42621;BME280;28252;53.336;-6.298;2022-07-22T02:18:40;101739.00;;;25.35;51.26
42621;BME280;28252;53.336;-6.298;2022-07-22T02:19:11;101739.84;;;25.36;51.44
42621;BME280;28252;53.336;-6.298;2022-07-22T02:19:43;101743.59;;;25.35;51.19
42621;BME280;28252;53.336;-6.298;2022-07-22T02:20:14;101740.84;;;25.35;51.45
42621;BME280;28252;53.336;-6.298;2022-07-22T02:20:45;101734.38;;;25.36;51.26
42621;BME280;28252;53.336;-6.298;2022-07-22T02:21:16;101739.84;;;25.36;51.32
42621;BME280;28252;53.336;-6.298;2022-07-22T02:21:47;101739.00;;;25.35;51.48
42621;BME280;28252;53.336;-6.298;2022-07-22T02:22:18;101739.84;;;25.36;51.46
42621;BME280;28252;53.336;-6.298;2022-07-22T02:22:49;101740.69;;;25.37;51.29
42621;BME280;28252;53.336;-6.298;2022-07-22T02:23:20;101737.13;;;25.36;51.10
42621;BME280;28252;53.336;-6.298;2022-07-22T02:23:51;101739.00;;;25.35;51.07
42621;BME280;28252;53.336;-6.298;2022-07-22T02:24:22;101734.38;;;25.36;51.34
42621;BME280;28252;53.336;-6.298;2022-07-22T02:24:53;101738.13;;;25.35;51.41
42621;BME280;28252;53.336;-6.298;2022-07-22T02:25:24;101727.22;;;25.35;51.32
42621;BME280;28252;53.336;-6.298;2022-07-22T02:25:55;101733.53;;;25.35;51.41
42621;BME280;28252;53.336;-6.298;2022-07-22T02:26:26;101732.69;;;25.35;51.41
42621;BME280;28252;53.336;-6.298;2022-07-22T02:26:57;101729.94;;;25.35;51.08
42621;BME280;28252;53.336;-6.298;2022-07-22T02:27:28;101734.56;;;25.34;51.25
42621;BME280;28252;53.336;-6.298;2022-07-22T02:27:59;101728.94;;;25.36;51.11
42621;BME280;28252;53.336;-6.298;2022-07-22T02:28:30;101731.66;;;25.36;51.37
42621;BME280;28252;53.336;-6.298;2022-07-22T02:29:01;101729.09;;;25.34;51.45
42621;BME280;28252;53.336;-6.298;2022-07-22T02:29:32;101736.28;;;25.35;51.42
42621;BME280;28252;53.336;-6.298;2022-07-22T02:30:04;101733.53;;;25.35;51.02
42621;BME280;28252;53.336;-6.298;2022-07-22T02:30:36;101733.53;;;25.35;51.03
42621;BME280;28252;53.336;-6.298;2022-07-22T02:31:07;101728.09;;;25.35;51.17
42621;BME280;28252;53.336;-6.298;2022-07-22T02:31:38;101738.13;;;25.35;51.17
42621;BME280;28252;53.336;-6.298;2022-07-22T02:32:09;101734.38;;;25.36;51.02
42621;BME280;28252;53.336;-6.298;2022-07-22T02:32:40;101732.69;;;25.35;51.26
42621;BME280;28252;53.336;-6.298;2022-07-22T02:33:11;101734.38;;;25.36;51.40
42621;BME280;28252;53.336;-6.298;2022-07-22T02:33:42;101742.56;;;25.36;51.19
42621;BME280;28252;53.336;-6.298;2022-07-22T02:34:13;101736.28;;;25.35;51.31
42621;BME280;28252;53.336;-6.298;2022-07-22T02:34:44;101732.50;;;25.37;51.15
42621;BME280;28252;53.336;-6.298;2022-07-22T02:35:15;101736.09;;;25.37;51.33
42621;BME280;28252;53.336;-6.298;2022-07-22T02:35:46;101741.72;;;25.35;51.41
42621;BME280;28252;53.336;-6.298;2022-07-22T02:36:17;101739.00;;;25.35;51.13
42621;BME280;28252;53.336;-6.298;2022-07-22T02:36:48;101739.84;;;25.36;51.61
42621;BME280;28252;53.336;-6.298;2022-07-22T02:37:29;101737.13;;;25.36;51.07
42621;BME280;28252;53.336;-6.298;2022-07-22T02:38:00;101737.13;;;25.36;51.38
42621;BME280;28252;53.336;-6.298;2022-07-22T02:38:31;101734.38;;;25.36;51.40
42621;BME280;28252;53.336;-6.298;2022-07-22T02:39:02;101734.38;;;25.36;51.30
42621;BME280;28252;53.336;-6.298;2022-07-22T02:39:33;101734.38;;;25.36;51.60
42621;BME280;28252;53.336;-6.298;2022-07-22T02:40:05;101729.78;;;25.37;51.23
42621;BME280;28252;53.336;-6.298;2022-07-22T02:40:36;101727.03;;;25.37;51.36
42621;BME280;28252;53.336;-6.298;2022-07-22T02:41:07;101734.38;;;25.36;51.38